sensor_id;sensor_type;location;lat;lon;timestamp;P1;durP1;ratioP1;P2;durP2;ratioP2
72603;SDS011;60645;56.968;24.196;2023-06-26T11:06:41;4.35;;;1.50;;
72603;SDS011;60645;56.968;24.196;2023-06-26T11:09:13;3.83;;;1.40;;
72603;SDS011;60645;56.968;24.196;2023-06-26T11:14:21;2.40;;;1.40;;
72603;SDS011;60645;56.968;24.196;2023-06-26T11:16:50;2.35;;;1.40;;
72603;SDS011;60645;56.968;24.196;2023-06-26T11:19:17;3.97;;;1.60;;
72603;SDS011;60645;56.968;24.196;2023-06-26T11:21:45;3.60;;;1.35;;
72603;SDS011;60645;56.968;24.196;2023-06-26T11:24:13;3.47;;;1.50;;
72603;SDS011;60645;56.968;24.196;2023-06-26T11:26:40;4.90;;;1.65;;
72603;SDS011;60645;56.968;24.196;2023-06-26T11:29:09;3.22;;;1.40;;
72603;SDS011;60645;56.968;24.196;2023-06-26T11:31:37;3.50;;;1.60;;
72603;SDS011;60645;56.968;24.196;2023-06-26T11:34:06;4.13;;;1.40;;
72603;SDS011;60645;56.968;24.196;2023-06-26T11:36:35;5.97;;;1.40;;
72603;SDS011;60645;56.968;24.196;2023-06-26T11:39:04;12.10;;;2.00;;
72603;SDS011;60645;56.968;24.196;2023-06-26T11:41:33;2.42;;;1.30;;
72603;SDS011;60645;56.968;24.196;2023-06-26T11:44:02;3.03;;;1.27;;
72603;SDS011;60645;56.968;24.196;2023-06-26T11:46:30;2.33;;;1.00;;
72603;SDS011;60645;56.968;24.196;2023-06-26T11:48:58;2.80;;;1.00;;
72603;SDS011;60645;56.968;24.196;2023-06-26T11:51:28;2.53;;;1.45;;
72603;SDS011;60645;56.968;24.196;2023-06-26T11:53:55;3.25;;;1.08;;
72603;SDS011;60645;56.968;24.196;2023-06-26T11:56:22;1.60;;;1.25;;
72603;SDS011;60645;56.968;24.196;2023-06-26T12:01:40;6.47;;;1.55;;
72603;SDS011;60645;56.968;24.196;2023-06-26T12:04:11;5.65;;;1.60;;
72603;SDS011;60645;56.968;24.196;2023-06-26T12:06:49;2.70;;;1.65;;
72603;SDS011;60645;56.968;24.196;2023-06-26T12:09:19;4.28;;;1.50;;
72603;SDS011;60645;56.968;24.196;2023-06-26T12:11:47;2.35;;;1.30;;
72603;SDS011;60645;56.968;24.196;2023-06-26T12:14:19;6.55;;;1.83;;
72603;SDS011;60645;56.968;24.196;2023-06-26T12:16:47;3.25;;;1.60;;
72603;SDS011;60645;56.968;24.196;2023-06-26T12:19:14;2.60;;;1.33;;
72603;SDS011;60645;56.968;24.196;2023-06-26T12:24:15;3.43;;;1.43;;
72603;SDS011;60645;56.968;24.196;2023-06-26T12:26:44;2.63;;;1.30;;
72603;SDS011;60645;56.968;24.196;2023-06-26T12:29:12;2.92;;;1.52;;
72603;SDS011;60645;56.968;24.196;2023-06-26T12:31:45;3.28;;;1.20;;
72603;SDS011;60645;56.968;24.196;2023-06-26T12:34:15;2.30;;;1.25;;
72603;SDS011;60645;56.968;24.196;2023-06-26T12:36:45;4.10;;;1.73;;
72603;SDS011;60645;56.968;24.196;2023-06-26T12:39:19;2.67;;;1.20;;
72603;SDS011;60645;56.968;24.196;2023-06-26T12:41:54;2.45;;;1.27;;
72603;SDS011;60645;56.968;24.196;2023-06-26T12:44:27;5.53;;;1.40;;
72603;SDS011;60645;56.968;24.196;2023-06-26T12:46:59;1.98;;;1.25;;
72603;SDS011;60645;56.968;24.196;2023-06-26T12:49:33;1.23;;;1.13;;
72603;SDS011;60645;56.968;24.196;2023-06-26T12:52:20;1.35;;;1.23;;
72603;SDS011;60645;56.968;24.196;2023-06-26T12:54:51;1.90;;;1.50;;
72603;SDS011;60645;56.968;24.196;2023-06-26T12:57:19;2.22;;;1.42;;
72603;SDS011;60645;56.968;24.196;2023-06-26T12:59:46;2.50;;;1.50;;
72603;SDS011;60645;56.968;24.196;2023-06-26T13:02:14;3.00;;;1.40;;
72603;SDS011;60645;56.968;24.196;2023-06-26T13:04:41;3.43;;;1.20;;
72603;SDS011;60645;56.968;24.196;2023-06-26T13:07:11;3.05;;;1.30;;
72603;SDS011;60645;56.968;24.196;2023-06-26T13:12:30;2.33;;;1.73;;
72603;SDS011;60645;56.968;24.196;2023-06-26T13:14:57;2.92;;;1.30;;
72603;SDS011;60645;56.968;24.196;2023-06-26T13:17:24;2.13;;;1.40;;
72603;SDS011;60645;56.968;24.196;2023-06-26T13:19:51;3.40;;;1.27;;
72603;SDS011;60645;56.968;24.196;2023-06-26T13:22:18;2.55;;;1.25;;
72603;SDS011;60645;56.968;24.196;2023-06-26T13:24:45;1.15;;;1.02;;
72603;SDS011;60645;56.968;24.196;2023-06-26T13:27:13;1.43;;;1.20;;
72603;SDS011;60645;56.968;24.196;2023-06-26T13:29:40;2.20;;;1.48;;
72603;SDS011;60645;56.968;24.196;2023-06-26T13:32:07;2.23;;;1.37;;
72603;SDS011;60645;56.968;24.196;2023-06-26T13:34:34;3.63;;;1.40;;
72603;SDS011;60645;56.968;24.196;2023-06-26T13:37:01;4.43;;;1.20;;
72603;SDS011;60645;56.968;24.196;2023-06-26T13:39:28;3.20;;;1.20;;
72603;SDS011;60645;56.968;24.196;2023-06-26T13:41:55;2.22;;;1.38;;
72603;SDS011;60645;56.968;24.196;2023-06-26T13:44:22;2.65;;;1.40;;
72603;SDS011;60645;56.968;24.196;2023-06-26T13:47:04;9.48;;;1.60;;
72603;SDS011;60645;56.968;24.196;2023-06-26T13:49:32;3.80;;;1.43;;
72603;SDS011;60645;56.968;24.196;2023-06-26T13:51:59;2.70;;;1.20;;
72603;SDS011;60645;56.968;24.196;2023-06-26T13:54:27;3.35;;;1.70;;
72603;SDS011;60645;56.968;24.196;2023-06-26T13:56:54;4.75;;;1.45;;
72603;SDS011;60645;56.968;24.196;2023-06-26T13:59:24;3.88;;;1.55;;
72603;SDS011;60645;56.968;24.196;2023-06-26T14:01:52;3.70;;;1.35;;
72603;SDS011;60645;56.968;24.196;2023-06-26T14:04:19;2.40;;;1.60;;
72603;SDS011;60645;56.968;24.196;2023-06-26T14:06:47;5.15;;;1.38;;
72603;SDS011;60645;56.968;24.196;2023-06-26T14:09:14;2.92;;;1.60;;
72603;SDS011;60645;56.968;24.196;2023-06-26T14:11:41;2.50;;;1.45;;
72603;SDS011;60645;56.968;24.196;2023-06-26T14:14:09;4.00;;;1.85;;
72603;SDS011;60645;56.968;24.196;2023-06-26T14:16:36;2.72;;;1.27;;
72603;SDS011;60645;56.968;24.196;2023-06-26T14:19:04;7.18;;;1.75;;
72603;SDS011;60645;56.968;24.196;2023-06-26T14:21:31;3.87;;;1.90;;
72603;SDS011;60645;56.968;24.196;2023-06-26T14:23:59;6.70;;;3.55;;
72603;SDS011;60645;56.968;24.196;2023-06-26T14:26:26;10.15;;;3.13;;
72603;SDS011;60645;56.968;24.196;2023-06-26T14:28:56;6.73;;;1.77;;
72603;SDS011;60645;56.968;24.196;2023-06-26T14:31:23;8.73;;;1.60;;
72603;SDS011;60645;56.968;24.196;2023-06-26T14:33:50;10.23;;;2.20;;
72603;SDS011;60645;56.968;24.196;2023-06-26T14:36:17;10.88;;;2.10;;
72603;SDS011;60645;56.968;24.196;2023-06-26T14:38:45;8.48;;;2.20;;
72603;SDS011;60645;56.968;24.196;2023-06-26T14:41:12;7.50;;;1.75;;
72603;SDS011;60645;56.968;24.196;2023-06-26T14:43:40;7.95;;;1.95;;
72603;SDS011;60645;56.968;24.196;2023-06-26T14:46:07;7.50;;;1.88;;
72603;SDS011;60645;56.968;24.196;2023-06-26T14:48:35;5.27;;;1.83;;
72603;SDS011;60645;56.968;24.196;2023-06-26T14:51:02;3.17;;;1.67;;
72603;SDS011;60645;56.968;24.196;2023-06-26T14:53:29;3.25;;;1.10;;
72603;SDS011;60645;56.968;24.196;2023-06-26T14:55:56;4.20;;;1.52;;
72603;SDS011;60645;56.968;24.196;2023-06-26T14:58:23;2.15;;;1.20;;
72603;SDS011;60645;56.968;24.196;2023-06-26T15:00:50;3.80;;;1.52;;
72603;SDS011;60645;56.968;24.196;2023-06-26T15:03:17;3.58;;;1.60;;
72603;SDS011;60645;56.968;24.196;2023-06-26T15:05:44;2.60;;;2.30;;
72603;SDS011;60645;56.968;24.196;2023-06-26T15:08:11;4.45;;;1.70;;
72603;SDS011;60645;56.968;24.196;2023-06-26T15:10:38;2.17;;;1.30;;
72603;SDS011;60645;56.968;24.196;2023-06-26T15:13:05;2.00;;;1.20;;
72603;SDS011;60645;56.968;24.196;2023-06-26T15:15:34;5.95;;;1.73;;
72603;SDS011;60645;56.968;24.196;2023-06-26T15:18:01;1.93;;;1.50;;
72603;SDS011;60645;56.968;24.196;2023-06-26T15:20:28;2.70;;;1.67;;
72603;SDS011;60645;56.968;24.196;2023-06-26T15:22:55;4.00;;;1.40;;
72603;SDS011;60645;56.968;24.196;2023-06-26T15:25:22;3.38;;;1.88;;
72603;SDS011;60645;56.968;24.196;2023-06-26T15:27:49;2.47;;;1.73;;
72603;SDS011;60645;56.968;24.196;2023-06-26T15:30:16;3.45;;;2.20;;
72603;SDS011;60645;56.968;24.196;2023-06-26T15:32:43;2.13;;;1.63;;
72603;SDS011;60645;56.968;24.196;2023-06-26T15:35:11;2.58;;;1.77;;
72603;SDS011;60645;56.968;24.196;2023-06-26T15:37:38;3.13;;;2.00;;
72603;SDS011;60645;56.968;24.196;2023-06-26T15:40:05;2.10;;;1.47;;
72603;SDS011;60645;56.968;24.196;2023-06-26T15:42:33;2.30;;;2.00;;
72603;SDS011;60645;56.968;24.196;2023-06-26T15:45:11;3.67;;;1.80;;
72603;SDS011;60645;56.968;24.196;2023-06-26T15:47:39;2.70;;;2.00;;
72603;SDS011;60645;56.968;24.196;2023-06-26T15:50:07;3.03;;;1.90;;
72603;SDS011;60645;56.968;24.196;2023-06-26T15:52:34;2.80;;;1.50;;
72603;SDS011;60645;56.968;24.196;2023-06-26T15:55:02;3.70;;;1.77;;
72603;SDS011;60645;56.968;24.196;2023-06-26T15:57:30;2.47;;;1.85;;
72603;SDS011;60645;56.968;24.196;2023-06-26T15:59:58;2.33;;;1.67;;
72603;SDS011;60645;56.968;24.196;2023-06-26T16:02:26;3.23;;;1.80;;
72603;SDS011;60645;56.968;24.196;2023-06-26T16:04:53;2.80;;;1.63;;
72603;SDS011;60645;56.968;24.196;2023-06-26T16:07:20;3.05;;;1.48;;
72603;SDS011;60645;56.968;24.196;2023-06-26T16:09:50;3.35;;;1.33;;
72603;SDS011;60645;56.968;24.196;2023-06-26T16:12:18;2.28;;;1.83;;
72603;SDS011;60645;56.968;24.196;2023-06-26T16:14:45;3.88;;;1.50;;
72603;SDS011;60645;56.968;24.196;2023-06-26T16:17:12;3.00;;;1.40;;
72603;SDS011;60645;56.968;24.196;2023-06-26T16:19:39;3.03;;;1.67;;
72603;SDS011;60645;56.968;24.196;2023-06-26T16:22:07;1.73;;;1.38;;
72603;SDS011;60645;56.968;24.196;2023-06-26T16:24:34;2.42;;;1.65;;
72603;SDS011;60645;56.968;24.196;2023-06-26T16:27:03;1.98;;;1.60;;
72603;SDS011;60645;56.968;24.196;2023-06-26T16:29:30;2.60;;;1.58;;
72603;SDS011;60645;56.968;24.196;2023-06-26T16:31:57;3.30;;;2.17;;
72603;SDS011;60645;56.968;24.196;2023-06-26T16:34:27;3.20;;;1.73;;
72603;SDS011;60645;56.968;24.196;2023-06-26T16:36:54;2.00;;;1.70;;
72603;SDS011;60645;56.968;24.196;2023-06-26T16:39:21;2.60;;;1.67;;
72603;SDS011;60645;56.968;24.196;2023-06-26T16:41:50;1.67;;;1.58;;
72603;SDS011;60645;56.968;24.196;2023-06-26T16:44:21;2.83;;;1.92;;
72603;SDS011;60645;56.968;24.196;2023-06-26T16:46:48;3.50;;;2.03;;
72603;SDS011;60645;56.968;24.196;2023-06-26T16:49:15;2.67;;;2.00;;
72603;SDS011;60645;56.968;24.196;2023-06-26T16:51:42;2.40;;;1.90;;
72603;SDS011;60645;56.968;24.196;2023-06-26T16:54:09;3.55;;;2.33;;
72603;SDS011;60645;56.968;24.196;2023-06-26T16:56:36;2.27;;;2.07;;
72603;SDS011;60645;56.968;24.196;2023-06-26T16:59:03;3.47;;;1.58;;
72603;SDS011;60645;56.968;24.196;2023-06-26T17:01:30;3.08;;;1.77;;
72603;SDS011;60645;56.968;24.196;2023-06-26T17:03:58;3.38;;;1.63;;
72603;SDS011;60645;56.968;24.196;2023-06-26T17:06:25;2.20;;;1.58;;
72603;SDS011;60645;56.968;24.196;2023-06-26T17:08:55;3.03;;;2.25;;
72603;SDS011;60645;56.968;24.196;2023-06-26T17:11:22;1.70;;;1.52;;
72603;SDS011;60645;56.968;24.196;2023-06-26T17:13:49;2.45;;;1.67;;
72603;SDS011;60645;56.968;24.196;2023-06-26T17:16:17;2.67;;;1.50;;
72603;SDS011;60645;56.968;24.196;2023-06-26T17:18:44;2.40;;;1.75;;
72603;SDS011;60645;56.968;24.196;2023-06-26T17:21:11;3.40;;;1.85;;
72603;SDS011;60645;56.968;24.196;2023-06-26T17:23:39;3.53;;;1.83;;
72603;SDS011;60645;56.968;24.196;2023-06-26T17:26:08;3.00;;;1.83;;
72603;SDS011;60645;56.968;24.196;2023-06-26T17:28:36;2.40;;;1.70;;
72603;SDS011;60645;56.968;24.196;2023-06-26T17:31:04;4.00;;;2.03;;
72603;SDS011;60645;56.968;24.196;2023-06-26T17:33:31;4.10;;;2.13;;
72603;SDS011;60645;56.968;24.196;2023-06-26T17:36:00;2.85;;;2.15;;
72603;SDS011;60645;56.968;24.196;2023-06-26T17:38:27;3.55;;;1.73;;
72603;SDS011;60645;56.968;24.196;2023-06-26T17:40:54;2.80;;;1.77;;
72603;SDS011;60645;56.968;24.196;2023-06-26T17:43:21;2.80;;;2.10;;
72603;SDS011;60645;56.968;24.196;2023-06-26T17:45:49;2.45;;;1.88;;
72603;SDS011;60645;56.968;24.196;2023-06-26T17:48:16;3.60;;;2.00;;
72603;SDS011;60645;56.968;24.196;2023-06-26T17:50:43;3.00;;;1.67;;
72603;SDS011;60645;56.968;24.196;2023-06-26T17:53:10;1.95;;;1.67;;
72603;SDS011;60645;56.968;24.196;2023-06-26T17:55:38;2.53;;;1.90;;
72603;SDS011;60645;56.968;24.196;2023-06-26T17:58:05;3.00;;;1.98;;
72603;SDS011;60645;56.968;24.196;2023-06-26T18:00:32;2.70;;;2.10;;
72603;SDS011;60645;56.968;24.196;2023-06-26T18:02:59;6.07;;;3.67;;
72603;SDS011;60645;56.968;24.196;2023-06-26T18:05:26;5.38;;;3.97;;
72603;SDS011;60645;56.968;24.196;2023-06-26T18:07:54;2.40;;;1.75;;
72603;SDS011;60645;56.968;24.196;2023-06-26T18:10:29;3.63;;;2.00;;
72603;SDS011;60645;56.968;24.196;2023-06-26T18:12:57;2.75;;;2.05;;
72603;SDS011;60645;56.968;24.196;2023-06-26T18:15:24;3.80;;;2.08;;
72603;SDS011;60645;56.968;24.196;2023-06-26T18:17:51;3.40;;;1.90;;
72603;SDS011;60645;56.968;24.196;2023-06-26T18:20:19;2.90;;;1.90;;
72603;SDS011;60645;56.968;24.196;2023-06-26T18:22:46;2.75;;;2.15;;
72603;SDS011;60645;56.968;24.196;2023-06-26T18:25:14;2.47;;;1.92;;
72603;SDS011;60645;56.968;24.196;2023-06-26T18:27:41;3.25;;;2.10;;
72603;SDS011;60645;56.968;24.196;2023-06-26T18:30:09;2.55;;;2.10;;
72603;SDS011;60645;56.968;24.196;2023-06-26T18:32:36;3.80;;;2.00;;
72603;SDS011;60645;56.968;24.196;2023-06-26T18:35:03;3.72;;;2.03;;
72603;SDS011;60645;56.968;24.196;2023-06-26T18:37:31;4.50;;;2.28;;
72603;SDS011;60645;56.968;24.196;2023-06-26T18:39:58;2.72;;;2.10;;
72603;SDS011;60645;56.968;24.196;2023-06-26T18:42:26;3.15;;;2.33;;
72603;SDS011;60645;56.968;24.196;2023-06-26T18:44:53;3.42;;;2.40;;
72603;SDS011;60645;56.968;24.196;2023-06-26T18:47:21;4.27;;;2.13;;
72603;SDS011;60645;56.968;24.196;2023-06-26T18:49:48;3.22;;;2.40;;
72603;SDS011;60645;56.968;24.196;2023-06-26T18:52:15;5.55;;;1.83;;
72603;SDS011;60645;56.968;24.196;2023-06-26T18:54:43;4.25;;;2.40;;
72603;SDS011;60645;56.968;24.196;2023-06-26T18:57:10;4.45;;;2.45;;
72603;SDS011;60645;56.968;24.196;2023-06-26T18:59:37;3.50;;;2.33;;
72603;SDS011;60645;56.968;24.196;2023-06-26T19:02:05;5.38;;;2.40;;
72603;SDS011;60645;56.968;24.196;2023-06-26T19:04:33;2.63;;;2.05;;
72603;SDS011;60645;56.968;24.196;2023-06-26T19:07:00;4.60;;;2.42;;
72603;SDS011;60645;56.968;24.196;2023-06-26T19:09:27;3.72;;;2.30;;
72603;SDS011;60645;56.968;24.196;2023-06-26T19:11:56;3.60;;;2.50;;
